Time;durP1;ratioP1;P1;durP2;ratioP2;P2;SDS_P1;SDS_P2;PMS_P1;PMS_P2;Temp;Humidity;BMP_temperature;BMP_pressure;BME280_temperature;BME280_humidity;BME280_pressure;Samples;Min_cycle;Max_cycle;Signal;HPM_P1;HPM_P2
2024/01/08 00:00:51;;;;;;;13.45;3.22;;;23.80;99.90;;;;;;5019684;28;20033;-67
2024/01/08 00:03:18;;;;;;;21.65;4.03;;;23.80;99.90;;;;;;5035254;28;20067;-67
2024/01/08 00:05:46;;;;;;;14.30;3.08;;;23.80;99.90;;;;;;5036736;28;20041;-67
2024/01/08 00:08:14;;;;;;;17.35;3.50;;;23.90;99.90;;;;;;5022662;28;20486;-67
2024/01/08 00:10:41;;;;;;;16.27;3.45;;;24.20;99.90;;;;;;5024795;28;20491;-68
2024/01/08 00:13:09;;;;;;;9.13;2.10;;;24.30;99.90;;;;;;5024738;28;20071;-68
2024/01/08 00:15:36;;;;;;;14.70;2.85;;;24.40;99.90;;;;;;5017795;28;20037;-68
2024/01/08 00:18:04;;;;;;;15.18;2.90;;;24.60;99.90;;;;;;5018710;28;20028;-68
2024/01/08 00:20:31;;;;;;;16.08;3.50;;;24.80;99.90;;;;;;5020311;28;20164;-67
2024/01/08 00:22:59;;;;;;;14.95;3.28;;;25.00;99.90;;;;;;5024280;28;20464;-67
2024/01/08 00:25:26;;;;;;;16.73;3.70;;;25.00;99.90;;;;;;5018988;28;20030;-68
2024/01/08 00:27:55;;;;;;;18.45;4.03;;;25.20;99.90;;;;;;5016212;28;20030;-68
2024/01/08 00:30:22;;;;;;;19.08;4.45;;;25.30;99.90;;;;;;5020937;28;20025;-68
2024/01/08 00:32:50;;;;;;;17.85;3.15;;;25.50;99.90;;;;;;5024189;28;20071;-68
2024/01/08 00:35:17;;;;;;;11.85;3.20;;;25.60;99.90;;;;;;5028110;28;20032;-68
2024/01/08 00:37:45;;;;;;;18.70;3.15;;;25.70;99.90;;;;;;5025614;28;20025;-67
2024/01/08 00:40:12;;;;;;;13.60;3.70;;;25.80;99.90;;;;;;5016783;28;20367;-68
2024/01/08 00:42:40;;;;;;;17.60;3.22;;;25.80;99.90;;;;;;5019519;28;20080;-67
2024/01/08 00:45:08;;;;;;;18.40;2.92;;;25.70;99.90;;;;;;5025420;28;20344;-67
2024/01/08 00:47:35;;;;;;;14.35;2.53;;;25.60;99.90;;;;;;5020654;28;20048;-67
2024/01/08 00:50:03;;;;;;;18.55;2.78;;;25.70;99.90;;;;;;5018692;28;20022;-67
2024/01/08 00:52:31;;;;;;;11.00;2.40;;;25.60;99.90;;;;;;5016772;28;20132;-67
2024/01/08 00:55:04;;;;;;;9.25;2.65;;;25.90;99.90;;;;;;5018717;28;20084;-66
2024/01/08 00:57:33;;;;;;;16.05;2.33;;;26.00;99.90;;;;;;5018924;28;20028;-68
2024/01/08 01:00:01;;;;;;;14.10;2.80;;;26.30;99.90;;;;;;5024650;28;20475;-68
2024/01/08 01:02:28;;;;;;;12.55;2.35;;;26.50;99.90;;;;;;5021165;28;20425;-68
2024/01/08 01:04:55;;;;;;;12.77;1.92;;;26.50;99.90;;;;;;5023912;28;20029;-68
2024/01/08 01:07:23;;;;;;;11.73;2.50;;;26.70;99.90;;;;;;5020718;28;20442;-67
2024/01/08 01:09:50;;;;;;;11.48;1.80;;;26.80;99.90;;;;;;5021144;28;20026;-67
2024/01/08 01:12:18;;;;;;;10.07;2.22;;;26.60;99.90;;;;;;5018729;28;20136;-67
2024/01/08 01:14:45;;;;;;;12.60;2.08;;;26.40;99.90;;;;;;5021350;28;20033;-67
2024/01/08 01:17:13;;;;;;;7.75;2.28;;;26.20;99.90;;;;;;5020662;28;20029;-68
2024/01/08 01:19:43;;;;;;;8.50;2.63;;;26.30;99.90;;;;;;5022710;28;20105;-67
2024/01/08 01:22:12;;;;;;;6.53;2.35;;;26.30;99.90;;;;;;5018506;28;20033;-67
2024/01/08 01:24:43;;;;;;;12.13;2.17;;;26.40;99.90;;;;;;5015467;28;20037;-68
2024/01/08 01:27:11;;;;;;;9.20;2.17;;;26.50;99.90;;;;;;5020172;28;20065;-68
2024/01/08 01:29:39;;;;;;;9.15;1.73;;;26.40;99.90;;;;;;5021413;28;20033;-68
2024/01/08 01:32:07;;;;;;;6.68;1.70;;;26.50;99.90;;;;;;5022067;28;20501;-66
2024/01/08 01:34:37;;;;;;;8.20;1.88;;;26.40;99.90;;;;;;5034975;28;20471;-66
2024/01/08 01:37:10;;;;;;;9.75;1.80;;;26.30;99.90;;;;;;5018538;28;20030;-66
2024/01/08 01:39:39;;;;;;;8.02;1.95;;;26.10;99.90;;;;;;5019607;28;20061;-66
2024/01/08 01:42:07;;;;;;;10.75;2.03;;;25.90;99.90;;;;;;5021144;28;20045;-66
2024/01/08 01:44:36;;;;;;;7.30;1.88;;;25.70;99.90;;;;;;5014349;28;20030;-67
2024/01/08 01:47:07;;;;;;;12.15;2.88;;;25.40;99.90;;;;;;5014047;28;20045;-66
2024/01/08 01:49:55;;;;;;;8.95;2.08;;;25.30;99.90;;;;;;5018013;28;20025;-67
2024/01/08 01:52:27;;;;;;;10.68;1.80;;;25.20;99.90;;;;;;5021877;28;20057;-66
2024/01/08 01:54:56;;;;;;;10.82;2.20;;;25.10;99.90;;;;;;5021037;28;20037;-67
2024/01/08 01:57:24;;;;;;;10.10;2.53;;;24.80;99.90;;;;;;5023943;28;20168;-66
2024/01/08 01:59:54;;;;;;;9.93;2.55;;;24.50;99.90;;;;;;5023648;28;20029;-67
2024/01/08 02:02:27;;;;;;;11.27;2.25;;;24.60;99.90;;;;;;5022323;28;20602;-67
2024/01/08 02:04:59;;;;;;;13.32;3.20;;;24.40;99.90;;;;;;5017306;28;20526;-67
2024/01/08 02:07:31;;;;;;;12.18;2.88;;;24.30;99.90;;;;;;5014551;28;20180;-67
2024/01/08 02:10:00;;;;;;;12.68;3.05;;;24.20;99.90;;;;;;5015583;28;20022;-66
2024/01/08 02:12:28;;;;;;;17.90;3.83;;;24.00;99.90;;;;;;5036768;28;20038;-66
2024/01/08 02:14:57;;;;;;;12.48;3.17;;;23.80;99.90;;;;;;5018494;28;20450;-66
2024/01/08 02:17:26;;;;;;;13.80;3.15;;;23.90;99.90;;;;;;5024617;28;20472;-66
2024/01/08 02:19:54;;;;;;;14.38;3.33;;;23.80;99.90;;;;;;5021983;28;20025;-66
2024/01/08 02:22:22;;;;;;;9.85;2.67;;;23.70;99.90;;;;;;5016432;28;20041;-66
2024/01/08 02:24:51;;;;;;;12.63;3.20;;;23.50;99.90;;;;;;5021085;28;20094;-66
2024/01/08 02:27:19;;;;;;;11.38;2.80;;;23.50;99.90;;;;;;5017122;28;20037;-65
2024/01/08 02:29:47;;;;;;;12.88;2.30;;;23.70;99.90;;;;;;5017962;28;20117;-66
2024/01/08 02:32:15;;;;;;;10.40;3.20;;;23.70;99.90;;;;;;5017729;28;20044;-65
2024/01/08 02:34:43;;;;;;;13.75;3.13;;;23.40;99.90;;;;;;5019180;28;20057;-65
2024/01/08 02:37:12;;;;;;;12.32;2.70;;;23.40;99.90;;;;;;5019431;28;20025;-67
2024/01/08 02:39:40;;;;;;;11.98;2.83;;;23.30;99.90;;;;;;5016010;28;20058;-66
2024/01/08 02:42:18;;;;;;;9.02;3.03;;;23.40;99.90;;;;;;5018145;28;20044;-65
2024/01/08 02:44:46;;;;;;;9.27;3.45;;;23.40;99.90;;;;;;5017496;28;20305;-66
2024/01/08 02:47:14;;;;;;;13.77;3.58;;;23.40;99.90;;;;;;5018491;28;20032;-65
2024/01/08 02:49:44;;;;;;;10.50;3.33;;;23.40;99.90;;;;;;5019579;28;20518;-66
2024/01/08 02:52:13;;;;;;;11.07;2.72;;;23.30;99.90;;;;;;5017211;28;20092;-66
2024/01/08 02:54:41;;;;;;;10.63;2.15;;;23.20;99.90;;;;;;5001056;28;20030;-66
2024/01/08 02:57:09;;;;;;;7.78;2.40;;;23.10;99.90;;;;;;5016866;28;20446;-65
2024/01/08 02:59:37;;;;;;;7.45;2.50;;;23.00;99.90;;;;;;5019014;28;20041;-66
2024/01/08 03:02:09;;;;;;;8.18;2.40;;;23.00;99.90;;;;;;5016099;28;20494;-66
2024/01/08 03:04:37;;;;;;;9.48;2.78;;;22.90;99.90;;;;;;5016846;28;20041;-65
2024/01/08 03:07:05;;;;;;;8.48;2.83;;;22.80;99.90;;;;;;5020260;28;20116;-66
2024/01/08 03:09:33;;;;;;;16.88;4.63;;;22.90;99.90;;;;;;5019860;28;20539;-66
2024/01/08 03:12:01;;;;;;;18.30;3.85;;;23.10;99.90;;;;;;5020200;28;20159;-66
2024/01/08 03:14:29;;;;;;;21.02;3.50;;;23.30;99.90;;;;;;5017562;28;20108;-67
2024/01/08 03:16:56;;;;;;;17.05;3.80;;;23.10;99.90;;;;;;5016074;28;20048;-66
2024/01/08 03:19:24;;;;;;;18.77;4.18;;;23.20;99.90;;;;;;5018586;28;20069;-67
2024/01/08 03:21:54;;;;;;;11.18;3.70;;;23.10;99.90;;;;;;5017573;28;20104;-66
2024/01/08 03:24:25;;;;;;;10.57;3.22;;;23.10;99.90;;;;;;5016557;28;20032;-66
2024/01/08 03:26:54;;;;;;;7.55;2.65;;;23.20;99.90;;;;;;5018882;28;20057;-65
2024/01/08 03:29:23;;;;;;;11.65;2.95;;;23.30;99.90;;;;;;5020376;28;20122;-66
2024/01/08 03:31:51;;;;;;;6.03;2.30;;;23.30;99.90;;;;;;5017107;28;20364;-67
2024/01/08 03:34:19;;;;;;;10.30;2.85;;;23.30;99.90;;;;;;5032381;28;20411;-67
2024/01/08 03:36:51;;;;;;;8.50;2.63;;;23.40;99.90;;;;;;5026095;28;20546;-66
2024/01/08 03:39:21;;;;;;;9.63;2.50;;;23.40;99.90;;;;;;5019357;28;20032;-66
2024/01/08 03:41:49;;;;;;;11.05;3.53;;;23.40;99.90;;;;;;5018601;28;20068;-67
2024/01/08 03:44:17;;;;;;;14.32;3.17;;;23.40;99.90;;;;;;5021929;28;20483;-67
2024/01/08 03:46:47;;;;;;;13.38;3.17;;;23.60;99.90;;;;;;5022444;28;20084;-67
2024/01/08 03:49:15;;;;;;;11.98;2.70;;;23.60;99.90;;;;;;5015733;28;20030;-67
2024/01/08 03:51:43;;;;;;;10.90;3.00;;;23.80;99.90;;;;;;5022103;28;20065;-67
2024/01/08 03:54:11;;;;;;;7.82;2.65;;;23.70;99.90;;;;;;5020361;28;20042;-68
2024/01/08 03:56:40;;;;;;;7.38;2.70;;;23.80;99.90;;;;;;5026780;28;20026;-67
2024/01/08 03:59:08;;;;;;;10.50;3.05;;;23.90;99.90;;;;;;5019186;28;20044;-67
2024/01/08 04:01:46;;;;;;;8.60;2.47;;;24.00;99.90;;;;;;5021919;28;20034;-67
2024/01/08 04:04:14;;;;;;;6.97;2.00;;;24.10;99.90;;;;;;5019169;28;20435;-67
2024/01/08 04:06:42;;;;;;;8.13;2.15;;;24.20;99.90;;;;;;5018928;28;20033;-67
2024/01/08 04:09:09;;;;;;;7.65;2.33;;;24.20;99.90;;;;;;5021181;28;20029;-67
2024/01/08 04:11:37;;;;;;;9.82;2.00;;;24.20;99.90;;;;;;5022915;28;20041;-68
2024/01/08 04:14:04;;;;;;;9.48;2.58;;;24.40;99.90;;;;;;5022746;28;20034;-67
2024/01/08 04:16:32;;;;;;;8.20;1.90;;;24.60;99.90;;;;;;5036844;28;20108;-67
2024/01/08 04:18:59;;;;;;;6.50;2.00;;;24.90;99.90;;;;;;5025260;28;20105;-67
2024/01/08 04:21:27;;;;;;;8.23;2.05;;;24.90;99.90;;;;;;5023499;28;20103;-67
2024/01/08 04:23:54;;;;;;;4.88;1.52;;;25.00;99.90;;;;;;5024165;28;20072;-68
2024/01/08 04:26:25;;;;;;;7.50;2.10;;;25.10;99.90;;;;;;5019921;28;20105;-67
2024/01/08 04:28:52;;;;;;;8.75;2.10;;;25.10;99.90;;;;;;5020638;28;20109;-67
2024/01/08 04:31:20;;;;;;;5.13;1.75;;;25.20;99.90;;;;;;5019097;28;20037;-67
2024/01/08 04:33:51;;;;;;;7.80;1.88;;;25.10;99.90;;;;;;5018681;28;20481;-67
2024/01/08 04:36:18;;;;;;;6.65;1.60;;;25.00;99.90;;;;;;5023158;28;20021;-68
2024/01/08 04:38:46;;;;;;;7.65;2.35;;;24.90;99.90;;;;;;5024170;28;20068;-68
2024/01/08 04:41:21;;;;;;;5.88;1.83;;;24.90;99.90;;;;;;5023069;28;20072;-68
2024/01/08 04:43:49;;;;;;;9.90;2.08;;;25.00;99.90;;;;;;5021011;28;20030;-67
2024/01/08 04:46:16;;;;;;;5.85;1.52;;;25.20;99.90;;;;;;5021477;28;20030;-67
2024/01/08 04:48:44;;;;;;;7.88;2.35;;;25.20;99.90;;;;;;5024585;28;20045;-67
2024/01/08 04:51:25;;;;;;;8.98;2.05;;;25.30;99.90;;;;;;5023268;28;20466;-67
2024/01/08 04:53:52;;;;;;;9.60;1.77;;;25.40;99.90;;;;;;5024542;28;20069;-68
2024/01/08 04:56:24;;;;;;;7.60;1.95;;;25.50;99.90;;;;;;5022098;28;20025;-66
2024/01/08 04:58:55;;;;;;;5.75;2.10;;;25.40;99.90;;;;;;5021978;28;20057;-68
2024/01/08 05:01:23;;;;;;;6.40;2.08;;;25.70;99.90;;;;;;5025051;28;20390;-68
2024/01/08 05:03:51;;;;;;;7.60;1.63;;;25.80;99.90;;;;;;5026685;28;20046;-68
2024/01/08 05:06:18;;;;;;;4.53;1.63;;;25.50;99.90;;;;;;5017688;28;20025;-68
2024/01/08 05:08:45;;;;;;;2.40;1.20;;;25.50;99.90;;;;;;5021364;28;20021;-68
2024/01/08 05:11:13;;;;;;;5.40;1.63;;;25.40;99.90;;;;;;5023885;28;20021;-69
2024/01/08 05:13:41;;;;;;;8.15;1.95;;;25.50;99.90;;;;;;5022286;28;20067;-68
2024/01/08 05:16:08;;;;;;;6.85;1.83;;;25.40;99.90;;;;;;5021735;28;20536;-68
2024/01/08 05:18:36;;;;;;;5.82;1.42;;;25.50;99.90;;;;;;5020527;28;20029;-67
2024/01/08 05:21:05;;;;;;;5.93;1.65;;;25.60;99.90;;;;;;5023860;28;20036;-68
2024/01/08 05:23:33;;;;;;;5.68;1.45;;;25.60;99.90;;;;;;5017567;28;20069;-68
2024/01/08 05:26:01;;;;;;;5.85;1.90;;;25.50;99.90;;;;;;5019613;28;20100;-68
2024/01/08 05:28:31;;;;;;;3.95;1.33;;;25.50;99.90;;;;;;5018851;28;20474;-68
2024/01/08 05:30:58;;;;;;;4.63;1.00;;;25.60;99.90;;;;;;5024514;28;20033;-68
2024/01/08 05:33:29;;;;;;;4.68;1.00;;;25.70;99.90;;;;;;5022449;28;20033;-68
2024/01/08 05:35:56;;;;;;;5.75;1.30;;;25.80;99.90;;;;;;5022692;28;20025;-68
2024/01/08 05:38:24;;;;;;;2.60;1.00;;;25.90;99.90;;;;;;5026427;28;20018;-68
2024/01/08 05:40:55;;;;;;;8.45;1.80;;;26.10;99.90;;;;;;5022530;28;20360;-69
2024/01/08 05:43:23;;;;;;;4.22;1.13;;;26.10;99.90;;;;;;5017469;28;20026;-69
2024/01/08 05:45:50;;;;;;;7.68;1.70;;;25.90;99.90;;;;;;5018489;28;20036;-68
2024/01/08 05:48:17;;;;;;;5.18;1.35;;;25.90;99.90;;;;;;5024181;28;20133;-68
2024/01/08 05:50:46;;;;;;;2.25;1.10;;;25.90;99.90;;;;;;5017397;28;20055;-69
2024/01/08 05:53:13;;;;;;;6.13;1.52;;;25.90;99.90;;;;;;5015753;28;20053;-69
2024/01/08 05:55:41;;;;;;;4.07;1.10;;;26.00;99.90;;;;;;5018275;28;20526;-68
2024/01/08 05:58:08;;;;;;;5.88;1.60;;;25.90;99.90;;;;;;5020193;28;20041;-68
2024/01/08 06:00:35;;;;;;;7.00;1.20;;;26.00;99.90;;;;;;5017394;28;20033;-69
2024/01/08 06:03:03;;;;;;;8.50;2.33;;;26.10;99.90;;;;;;5019841;28;20053;-68
2024/01/08 06:05:30;;;;;;;3.90;1.38;;;26.10;99.90;;;;;;5020735;28;20080;-69
2024/01/08 06:07:57;;;;;;;2.88;1.20;;;25.90;99.90;;;;;;5014680;28;20470;-68
2024/01/08 06:10:25;;;;;;;4.35;1.13;;;25.80;99.90;;;;;;5017219;28;20066;-69
2024/01/08 06:12:52;;;;;;;6.38;1.23;;;25.90;99.90;;;;;;5015256;28;20074;-68
2024/01/08 06:15:19;;;;;;;5.15;1.10;;;26.00;99.90;;;;;;5015955;28;20557;-68
2024/01/08 06:17:47;;;;;;;5.13;1.27;;;25.90;99.90;;;;;;5016654;28;20556;-69
2024/01/08 06:20:14;;;;;;;5.97;1.67;;;25.80;99.90;;;;;;5018228;28;20077;-69
2024/01/08 06:22:42;;;;;;;5.97;1.27;;;25.80;99.90;;;;;;5019764;28;20025;-69
2024/01/08 06:25:09;;;;;;;7.78;1.75;;;25.80;99.90;;;;;;5017413;28;20068;-69
2024/01/08 06:27:36;;;;;;;4.45;1.30;;;25.80;99.90;;;;;;5019475;28;20083;-69
2024/01/08 06:30:08;;;;;;;5.95;1.50;;;25.60;99.90;;;;;;5022893;28;20069;-69
2024/01/08 06:32:35;;;;;;;6.55;1.50;;;25.70;99.90;;;;;;5017966;28;20030;-69
2024/01/08 06:35:03;;;;;;;7.65;2.35;;;25.70;99.90;;;;;;5016996;28;20106;-69
2024/01/08 06:37:31;;;;;;;5.43;1.35;;;25.70;99.90;;;;;;5015973;28;20121;-69
2024/01/08 06:39:58;;;;;;;8.23;1.73;;;25.70;99.90;;;;;;5019076;28;20079;-69
2024/01/08 06:42:26;;;;;;;5.10;1.50;;;25.70;99.90;;;;;;5024458;28;20033;-69
2024/01/08 06:44:53;;;;;;;7.38;1.60;;;25.60;99.90;;;;;;5022787;28;20041;-69
2024/01/08 06:47:20;;;;;;;7.05;1.30;;;25.70;99.90;;;;;;5021764;28;20029;-69
2024/01/08 06:49:48;;;;;;;4.32;1.17;;;25.70;99.90;;;;;;5019171;28;20032;-68
2024/01/08 06:52:15;;;;;;;4.47;1.10;;;25.70;99.90;;;;;;5016125;28;20042;-69
2024/01/08 06:54:42;;;;;;;4.47;1.30;;;25.70;99.90;;;;;;5013927;28;20065;-69
2024/01/08 06:57:09;;;;;;;3.60;1.20;;;25.80;99.90;;;;;;5012681;28;20490;-68
2024/01/08 06:59:37;;;;;;;2.42;0.90;;;25.60;99.90;;;;;;5018678;28;20029;-69
2024/01/08 07:02:05;;;;;;;2.05;0.88;;;25.60;99.90;;;;;;5036955;28;20037;-67
2024/01/08 07:04:32;;;;;;;4.32;0.98;;;25.50;99.90;;;;;;5015509;28;20383;-68
2024/01/08 07:07:00;;;;;;;3.58;0.90;;;25.40;99.90;;;;;;5019032;28;20037;-68
2024/01/08 07:09:27;;;;;;;2.55;0.85;;;25.40;99.90;;;;;;5034402;28;20044;-69
2024/01/08 07:11:54;;;;;;;4.32;0.93;;;25.30;99.90;;;;;;5022014;28;20029;-69
2024/01/08 07:14:22;;;;;;;2.67;0.63;;;25.30;99.90;;;;;;5024412;28;20041;-68
2024/01/08 07:16:49;;;;;;;1.48;0.70;;;25.10;99.90;;;;;;5021372;28;20474;-72
2024/01/08 07:19:16;;;;;;;3.30;1.00;;;25.10;99.90;;;;;;5019732;28;20033;-69
2024/01/08 07:21:44;;;;;;;2.15;0.60;;;25.10;99.90;;;;;;5025757;28;20374;-69
2024/01/08 07:24:12;;;;;;;1.40;0.50;;;25.10;99.90;;;;;;5024590;28;20022;-69
2024/01/08 07:26:39;;;;;;;2.92;0.43;;;25.10;99.90;;;;;;5024723;28;20043;-68
2024/01/08 07:29:07;;;;;;;2.45;0.60;;;25.00;99.90;;;;;;5036728;28;20037;-69
2024/01/08 07:31:34;;;;;;;4.70;0.88;;;25.00;99.90;;;;;;5024954;28;20026;-69
2024/01/08 07:34:01;;;;;;;3.20;0.80;;;25.00;99.90;;;;;;5026494;28;20426;-69
2024/01/08 07:36:29;;;;;;;1.73;0.50;;;25.00;99.90;;;;;;5023251;28;20026;-68
2024/01/08 07:38:57;;;;;;;0.82;0.35;;;24.90;99.90;;;;;;5021794;28;20502;-71
2024/01/08 07:41:24;;;;;;;2.88;0.57;;;24.80;99.90;;;;;;5019618;28;20521;-69
2024/01/08 07:43:52;;;;;;;3.22;0.50;;;24.80;99.90;;;;;;5020977;28;20022;-67
2024/01/08 07:46:19;;;;;;;1.15;0.45;;;24.60;99.90;;;;;;5022390;28;20101;-69
2024/01/08 07:48:47;;;;;;;0.32;0.30;;;24.60;99.90;;;;;;5032680;28;20410;-69
2024/01/08 07:51:14;;;;;;;3.92;0.93;;;24.50;99.90;;;;;;5020199;28;20037;-69
2024/01/08 07:53:41;;;;;;;0.73;0.40;;;24.50;99.90;;;;;;5023613;28;20057;-69
2024/01/08 07:56:09;;;;;;;1.25;0.40;;;24.60;99.90;;;;;;5023653;28;20025;-69
2024/01/08 07:58:36;;;;;;;0.75;0.35;;;24.60;99.90;;;;;;5019724;28;20029;-69
2024/01/08 08:01:04;;;;;;;2.97;0.52;;;24.50;99.90;;;;;;5020947;28;20526;-68
2024/01/08 08:03:31;;;;;;;1.05;0.50;;;24.40;99.90;;;;;;5022638;28;20021;-69
2024/01/08 08:05:58;;;;;;;1.65;0.50;;;24.40;99.90;;;;;;5021322;28;20577;-69
2024/01/08 08:08:26;;;;;;;1.15;0.50;;;24.50;99.90;;;;;;5018755;28;20062;-68
2024/01/08 08:10:53;;;;;;;4.00;0.73;;;24.40;99.90;;;;;;5020495;28;20025;-68
2024/01/08 08:13:21;;;;;;;2.10;0.80;;;24.30;99.90;;;;;;5020758;28;20026;-69
2024/01/08 08:15:48;;;;;;;1.63;0.40;;;24.30;99.90;;;;;;5025055;28;20040;-68
2024/01/08 08:18:15;;;;;;;1.60;0.85;;;24.30;99.90;;;;;;5019980;28;20049;-69
2024/01/08 08:20:43;;;;;;;1.08;0.70;;;24.30;99.90;;;;;;5018056;28;20355;-69
2024/01/08 08:23:12;;;;;;;1.20;0.45;;;24.40;99.90;;;;;;5017743;28;20771;-69
2024/01/08 08:25:40;;;;;;;1.17;0.40;;;24.40;99.90;;;;;;5020573;28;20498;-69
2024/01/08 08:28:08;;;;;;;4.80;0.80;;;24.40;99.90;;;;;;5018524;28;20486;-69
2024/01/08 08:30:35;;;;;;;0.60;0.40;;;24.20;99.90;;;;;;5022458;28;20060;-69
2024/01/08 08:33:03;;;;;;;1.90;0.50;;;24.20;99.90;;;;;;5018257;28;20041;-68
2024/01/08 08:35:30;;;;;;;1.85;0.47;;;24.20;99.90;;;;;;5019934;28;20025;-69
2024/01/08 08:37:58;;;;;;;1.77;0.60;;;24.20;99.90;;;;;;5022408;28;20029;-70
2024/01/08 08:40:25;;;;;;;4.63;0.75;;;24.20;99.90;;;;;;5020071;28;20048;-69
2024/01/08 08:42:52;;;;;;;1.63;0.60;;;24.20;99.90;;;;;;5023009;28;20029;-68
2024/01/08 08:45:20;;;;;;;2.30;0.60;;;24.20;99.90;;;;;;5023470;28;20356;-69
2024/01/08 08:47:47;;;;;;;0.85;0.50;;;24.20;99.90;;;;;;5024158;28;20486;-69
2024/01/08 08:50:15;;;;;;;2.83;0.73;;;24.10;99.90;;;;;;5018240;28;20073;-69
2024/01/08 08:52:44;;;;;;;1.25;0.47;;;24.20;99.90;;;;;;5016896;28;20048;-69
2024/01/08 08:55:12;;;;;;;3.50;0.60;;;24.20;99.90;;;;;;5014871;28;20033;-69
2024/01/08 08:57:39;;;;;;;4.28;0.85;;;24.10;99.90;;;;;;5019170;28;20034;-69
2024/01/08 09:00:10;;;;;;;1.70;0.50;;;24.10;99.90;;;;;;5016592;28;20030;-69
2024/01/08 09:02:38;;;;;;;1.50;0.77;;;24.10;99.90;;;;;;5019375;28;20100;-69
2024/01/08 09:05:07;;;;;;;0.43;0.38;;;24.10;99.90;;;;;;5021736;28;20086;-69
2024/01/08 09:07:35;;;;;;;2.10;0.60;;;24.10;99.90;;;;;;5015007;28;20646;-69
2024/01/08 09:10:03;;;;;;;4.55;0.50;;;24.10;99.90;;;;;;5017511;28;20025;-69
2024/01/08 09:12:30;;;;;;;1.63;0.43;;;24.10;99.90;;;;;;5021576;28;20037;-69
2024/01/08 09:14:58;;;;;;;4.57;0.57;;;24.00;99.90;;;;;;5028164;28;20038;-69
2024/01/08 09:17:25;;;;;;;3.85;0.60;;;24.10;99.90;;;;;;5018438;28;20087;-69
2024/01/08 09:19:52;;;;;;;4.43;0.60;;;24.10;99.90;;;;;;5021563;28;20022;-69
2024/01/08 09:22:20;;;;;;;1.67;0.45;;;24.20;99.90;;;;;;5016371;28;20049;-68
2024/01/08 09:24:47;;;;;;;4.72;0.70;;;24.20;99.90;;;;;;5018974;28;20029;-68
2024/01/08 09:27:14;;;;;;;2.78;0.70;;;24.10;99.90;;;;;;5017541;28;20030;-68
2024/01/08 09:29:42;;;;;;;2.10;0.82;;;24.00;99.90;;;;;;5024643;28;20024;-68
2024/01/08 09:32:09;;;;;;;6.00;0.73;;;23.90;99.90;;;;;;5021040;28;20121;-68
2024/01/08 09:34:36;;;;;;;2.58;0.75;;;23.80;99.90;;;;;;5021654;28;20116;-68
2024/01/08 09:37:04;;;;;;;3.33;0.80;;;23.70;99.90;;;;;;5021955;28;20030;-69
2024/01/08 09:39:33;;;;;;;3.42;0.70;;;23.70;99.90;;;;;;5018210;28;20033;-69
2024/01/08 09:42:04;;;;;;;2.05;0.65;;;23.70;99.90;;;;;;5021626;28;20033;-69
2024/01/08 09:44:37;;;;;;;3.13;0.70;;;23.70;99.90;;;;;;5022499;28;20573;-69
2024/01/08 09:47:06;;;;;;;3.17;0.90;;;23.80;99.90;;;;;;5022793;28;20191;-68
2024/01/08 09:49:33;;;;;;;2.00;1.05;;;23.70;99.90;;;;;;5024642;28;20093;-69
2024/01/08 09:52:05;;;;;;;3.17;0.80;;;23.70;99.90;;;;;;5021620;28;20061;-69
2024/01/08 09:54:33;;;;;;;1.63;0.68;;;23.60;99.90;;;;;;5024285;28;20073;-69
2024/01/08 09:57:02;;;;;;;2.80;0.90;;;23.60;99.90;;;;;;5022479;28;20135;-71
2024/01/08 09:59:29;;;;;;;1.20;0.70;;;23.70;99.90;;;;;;5018610;28;20481;-68
2024/01/08 10:01:57;;;;;;;2.22;0.85;;;23.70;99.90;;;;;;5017470;28;20037;-69
2024/01/08 10:04:25;;;;;;;1.80;0.80;;;23.60;99.90;;;;;;5021761;28;20043;-68
2024/01/08 10:07:04;;;;;;;3.63;0.98;;;23.50;99.90;;;;;;5015656;28;20467;-68
2024/01/08 10:09:32;;;;;;;1.58;0.75;;;23.50;99.90;;;;;;5026880;28;20025;-69
2024/01/08 10:11:59;;;;;;;1.75;0.73;;;23.50;99.90;;;;;;5014820;28;20371;-69
2024/01/08 10:14:27;;;;;;;4.22;0.98;;;23.50;99.90;;;;;;5018790;28;20045;-69
2024/01/08 10:16:55;;;;;;;2.75;0.60;;;23.50;99.90;;;;;;5017633;28;20368;-68
2024/01/08 10:19:25;;;;;;;2.03;0.47;;;23.50;99.90;;;;;;5012237;28;20026;-69
2024/01/08 10:22:08;;;;;;;1.55;0.68;;;23.50;99.90;;;;;;5019587;28;20033;-69
2024/01/08 10:24:38;;;;;;;5.30;0.90;;;23.60;99.90;;;;;;5015750;28;20034;-68
2024/01/08 10:27:09;;;;;;;7.10;0.98;;;23.50;99.90;;;;;;5012597;28;20021;-69
2024/01/08 10:29:38;;;;;;;13.57;2.50;;;23.50;99.90;;;;;;5020884;28;20030;-68
2024/01/08 10:32:06;;;;;;;3.45;0.90;;;23.50;99.90;;;;;;5020532;28;20026;-69
2024/01/08 10:34:39;;;;;;;2.13;0.80;;;23.50;99.90;;;;;;5017558;28;20037;-68
2024/01/08 10:37:06;;;;;;;4.50;0.80;;;23.50;99.90;;;;;;5019458;28;20108;-69
2024/01/08 10:39:37;;;;;;;4.95;0.80;;;23.50;99.90;;;;;;5017273;28;20463;-69
2024/01/08 10:42:04;;;;;;;2.47;1.00;;;23.50;99.90;;;;;;5021412;28;20045;-70
2024/01/08 10:44:32;;;;;;;1.92;0.77;;;23.50;99.90;;;;;;5022375;28;20145;-69
2024/01/08 10:47:03;;;;;;;5.85;0.75;;;23.50;99.90;;;;;;5017939;28;20021;-69
2024/01/08 10:49:36;;;;;;;1.17;0.60;;;23.40;99.90;;;;;;5017252;28;20084;-69
2024/01/08 10:52:26;;;;;;;6.07;0.95;;;23.40;99.90;;;;;;5018515;28;20136;-68
2024/01/08 10:54:58;;;;;;;4.20;0.70;;;23.50;99.90;;;;;;5018380;28;20045;-69
2024/01/08 10:57:36;;;;;;;6.15;1.17;;;23.40;99.90;;;;;;5012543;28;20021;-69
2024/01/08 11:00:08;;;;;;;3.38;0.93;;;23.40;99.90;;;;;;5015792;28;20053;-69
2024/01/08 11:02:38;;;;;;;3.95;0.63;;;23.40;99.90;;;;;;5014914;28;20676;-69
2024/01/08 11:05:07;;;;;;;1.23;0.63;;;23.40;99.90;;;;;;5013184;28;20047;-69
2024/01/08 11:07:41;;;;;;;2.95;0.95;;;23.40;99.90;;;;;;5011609;28;20034;-69
2024/01/08 11:10:09;;;;;;;3.83;1.20;;;23.30;99.90;;;;;;5011942;28;20028;-71
2024/01/08 11:12:38;;;;;;;3.78;0.98;;;23.40;99.90;;;;;;5017403;28;20604;-69
2024/01/08 11:15:06;;;;;;;4.88;0.75;;;23.30;99.90;;;;;;5020638;28;20526;-71
2024/01/08 11:17:35;;;;;;;0.75;0.50;;;23.30;99.90;;;;;;5015956;28;20056;-71
2024/01/08 11:20:06;;;;;;;3.65;0.55;;;23.40;99.90;;;;;;5020894;28;20079;-71
2024/01/08 11:22:33;;;;;;;1.67;0.70;;;23.40;99.90;;;;;;5019985;28;20079;-71
2024/01/08 11:25:01;;;;;;;3.92;0.50;;;23.20;99.90;;;;;;5021029;28;20414;-70
2024/01/08 11:27:29;;;;;;;2.05;0.50;;;23.20;99.90;;;;;;5020090;28;20022;-71
2024/01/08 11:30:03;;;;;;;1.35;0.75;;;23.20;99.90;;;;;;5019685;28;20083;-70
2024/01/08 11:32:48;;;;;;;2.38;0.50;;;23.10;99.90;;;;;;5017679;28;20104;-70
2024/01/08 11:35:28;;;;;;;10.35;0.55;;;23.10;99.90;;;;;;5020121;28;20040;-69
2024/01/08 11:38:07;;;;;;;2.72;0.50;;;23.10;99.90;;;;;;5019051;28;20030;-70
2024/01/08 11:40:34;;;;;;;1.05;0.50;;;23.10;99.90;;;;;;5018625;28;20063;-70
2024/01/08 11:43:04;;;;;;;2.15;0.30;;;23.00;99.90;;;;;;5022147;28;20483;-71
2024/01/08 11:45:31;;;;;;;1.13;0.60;;;23.00;99.90;;;;;;5017059;28;20463;-70
2024/01/08 11:47:59;;;;;;;2.40;0.63;;;23.00;99.90;;;;;;5019785;28;20034;-70
2024/01/08 11:50:26;;;;;;;3.28;0.70;;;23.10;99.90;;;;;;5017516;28;20035;-70
2024/01/08 11:52:58;;;;;;;1.80;0.60;;;23.00;99.90;;;;;;5016424;28;20469;-70
2024/01/08 11:55:27;;;;;;;4.60;0.70;;;23.00;99.90;;;;;;5018819;28;20028;-70
2024/01/08 11:57:55;;;;;;;5.85;0.63;;;22.90;99.90;;;;;;5022356;28;20604;-71
2024/01/08 12:00:23;;;;;;;7.13;0.80;;;23.00;99.90;;;;;;5019114;28;20068;-70
2024/01/08 12:03:00;;;;;;;3.13;0.75;;;23.00;99.90;;;;;;5017114;28;20026;-70
2024/01/08 12:05:27;;;;;;;2.05;0.73;;;23.00;99.90;;;;;;5021159;28;22863;-70
2024/01/08 12:07:59;;;;;;;1.77;0.80;;;22.90;99.90;;;;;;5018284;28;20572;-70
2024/01/08 12:10:27;;;;;;;1.15;0.50;;;22.90;99.90;;;;;;5017575;28;20137;-70
2024/01/08 12:12:57;;;;;;;3.30;0.63;;;22.90;99.90;;;;;;5017352;28;20123;-70
2024/01/08 12:15:27;;;;;;;3.53;0.70;;;23.00;99.90;;;;;;5022943;28;20029;-71
2024/01/08 12:17:55;;;;;;;3.42;0.60;;;22.90;99.90;;;;;;5021433;28;20055;-70
2024/01/08 12:20:22;;;;;;;0.47;0.40;;;22.80;99.90;;;;;;5023453;28;20030;-70
2024/01/08 12:22:49;;;;;;;2.13;0.60;;;22.90;99.90;;;;;;5016173;28;20422;-70
2024/01/08 12:25:17;;;;;;;2.17;0.52;;;22.80;99.90;;;;;;5019127;28;20123;-70
2024/01/08 12:27:44;;;;;;;1.90;0.70;;;22.80;99.90;;;;;;5018510;28;20580;-69
2024/01/08 12:30:13;;;;;;;0.80;0.47;;;22.80;99.90;;;;;;5015418;28;20859;-70
2024/01/08 12:32:41;;;;;;;1.63;0.60;;;22.90;99.90;;;;;;5011403;28;20093;-70
2024/01/08 12:35:11;;;;;;;2.22;0.47;;;22.90;99.90;;;;;;5013303;28;20048;-70
2024/01/08 12:37:38;;;;;;;3.20;0.60;;;22.80;99.90;;;;;;5016495;28;20042;-70
2024/01/08 12:40:08;;;;;;;5.88;0.60;;;22.80;99.90;;;;;;5016753;28;20026;-70
2024/01/08 12:42:36;;;;;;;4.55;0.80;;;22.90;99.90;;;;;;5018504;28;20030;-70
2024/01/08 12:45:05;;;;;;;3.65;0.80;;;22.80;99.90;;;;;;5015086;28;20720;-70
2024/01/08 12:47:33;;;;;;;3.00;1.25;;;22.80;99.90;;;;;;5028532;28;20080;-69
2024/01/08 12:50:00;;;;;;;6.10;0.70;;;22.70;99.90;;;;;;5014289;28;20034;-70
2024/01/08 12:52:28;;;;;;;5.18;0.80;;;22.70;99.90;;;;;;5019008;28;20141;-70